WetterOnline ( http://www.wetteronline.de )

Wetter aktuell Chiemsee

Aktuelles Wetter: Chieming (553m)

6-stündlich | Neueste Meldungen
Ortszeit Temperatur Wetter
Do, 20.09. 14:00 24.6° C wolkenlos
Do, 20.09. 8:00 13.4° C wolkenlos
Do, 20.09. 2:00 13.3° C wolkig
Mi, 19.09. 20:00 19.2° C wolkenlos
Mi, 19.09. 14:00 22.9° C wolkenlos
Mi, 19.09. 8:00 14.1° C bewölkt
Mi, 19.09. 2:00 14.3° C bewölkt
Di, 18.09. 20:00 19.7° C wolkig
Ortszeit Temperatur Wetter
Do, 20.09. 19:00 21.5° C wolkenlos
Do, 20.09. 18:40 21.9° C fast wolkenlos
Do, 20.09. 18:30 22.6° C leicht bewölkt
Do, 20.09. 18:20 22.6° C leicht bewölkt
Do, 20.09. 18:10 22.7° C leicht bewölkt
Do, 20.09. 18:00 22.9° C leicht bewölkt
Do, 20.09. 17:50 22.9° C leicht bewölkt
Do, 20.09. 17:30 23.7° C bedeckt
Do, 20.09. 17:00 24.0° C wolkig
Do, 20.09. 16:30 24.3° C bedeckt
Do, 20.09. 16:00 24.5° C leicht bewölkt
Do, 20.09. 15:30 24.6° C fast wolkenlos
Ortszeit Relative Feuchte Sichtweite
Do, 20.09. 14:00 59% 14 km
Do, 20.09. 8:00 92% 17 km
Do, 20.09. 2:00 99% 15 km
Mi, 19.09. 20:00 78% 19 km
Mi, 19.09. 14:00 52% 16 km
Mi, 19.09. 8:00 95% 27 km
Mi, 19.09. 2:00 98% 26 km
Di, 18.09. 20:00 84% 11 km
Ortszeit Relative Feuchte Sichtweite
Do, 20.09. 19:00 66% 27 km
Do, 20.09. 18:40 66% -
Do, 20.09. 18:30 62% 19 km
Do, 20.09. 18:20 62% -
Do, 20.09. 18:10 62% -
Do, 20.09. 18:00 62% 22 km
Do, 20.09. 17:50 62% -
Do, 20.09. 17:30 57% 17 km
Do, 20.09. 17:00 55% 19 km
Do, 20.09. 16:30 53% 14 km
Do, 20.09. 16:00 50% 11 km
Do, 20.09. 15:30 49% 11 km
Ortszeit Niederschlagsmenge Niederschlagsart
Do, 20.09. 14:00 0.0 l/m2 in 6 Std. -
Do, 20.09. 8:00 0.1 l/m2 in 12 Std. -
Do, 20.09. 2:00 0.0 l/m2 in 6 Std. -
Mi, 19.09. 20:00 0.0 l/m2 in 12 Std. -
Mi, 19.09. 14:00 0.0 l/m2 in 6 Std. -
Mi, 19.09. 8:00 36 l/m2 in 12 Std. -
Mi, 19.09. 2:00 36 l/m2 in 6 Std. Regenschauer
Di, 18.09. 20:00 0.0 l/m2 in 12 Std. -
Ortszeit Niederschlagsmenge Niederschlagsart
Do, 20.09. 19:00 0.0 l/m2 in 1 Std. -
Do, 20.09. 18:40 keine Meldung -
Do, 20.09. 18:30 0.0 l/m2 in 1 Std. -
Do, 20.09. 18:20 keine Meldung -
Do, 20.09. 18:10 keine Meldung -
Do, 20.09. 18:00 0.0 l/m2 in 1 Std. -
Do, 20.09. 17:50 keine Meldung -
Do, 20.09. 17:30 0.0 l/m2 in 1 Std. -
Do, 20.09. 17:00 0.0 l/m2 in 1 Std. -
Do, 20.09. 16:30 0.0 l/m2 in 1 Std. -
Do, 20.09. 16:00 0.0 l/m2 in 1 Std. -
Do, 20.09. 15:30 0.0 l/m2 in 1 Std. -
Ortszeit Stärke Spitze Richtung
km/h Bft. km/h Grad Sektor
Do, 20.09. 14:00 4 1 11 280° W
Do, 20.09. 8:00 0 0 11 - -
Do, 20.09. 2:00 7 2 11 80° O
Mi, 19.09. 20:00 7 2 11 100° O
Mi, 19.09. 14:00 4 1 14 130° SO
Mi, 19.09. 8:00 4 1 25 160° S
Mi, 19.09. 2:00 7 2 54 80° O
Di, 18.09. 20:00 4 1 11 180° S
Ortszeit Stärke Spitze Richtung
km/h Bft. km/h Grad Sektor
Do, 20.09. 19:00 7 2 11 90° O
Do, 20.09. 18:40 7 2 - 80° O
Do, 20.09. 18:30 7 2 11 70° O
Do, 20.09. 18:20 7 2 - 70° O
Do, 20.09. 18:10 7 2 - 70° O
Do, 20.09. 18:00 11 2 18 70° O
Do, 20.09. 17:50 11 2 - 70° O
Do, 20.09. 17:30 11 2 18 60° NO
Do, 20.09. 17:00 13 3 19 60° NO
Do, 20.09. 16:30 13 3 19 60° NO
Do, 20.09. 16:00 13 3 19 50° NO
Do, 20.09. 15:30 11 2 17 50° NO
Ortszeit Untergrenze Bedeckung Gattung
total tief tief mittel hoch
Do, 20.09. 14:00 - 0/8 0/8 - - -
Do, 20.09. 8:00 - 0/8 0/8 - - -
Do, 20.09. 2:00 2700 m 8/8 2/8 - - -
Mi, 19.09. 20:00 - 0/8 0/8 - - -
Mi, 19.09. 14:00 2100 m 0/8 0/8 - - -
Mi, 19.09. 8:00 2400 m 7/8 7/8 - - -
Mi, 19.09. 2:00 3000 m 8/8 5/8 - - -
Di, 18.09. 20:00 2700 m 5/8 7/8 - - -
Ortszeit Bedeckungsgrad in Achtel und Wolkenuntergrenze
Do, 20.09. 19:00 keine Wolken
Do, 20.09. 18:40 1(3300m)
Do, 20.09. 18:30 3(3300m)
Do, 20.09. 18:20 3(3300m)
Do, 20.09. 18:10 3(3300m)
Do, 20.09. 18:00 2(3300m) 9 9
Do, 20.09. 17:50 2(3300m)
Do, 20.09. 17:30 2(3600m) 9 9
Do, 20.09. 17:00 9 9 9
Do, 20.09. 16:30 9 9 9
Do, 20.09. 16:00 2(3600m) 2(3600m)
Do, 20.09. 15:30 1(3000m) 2(3600m)
Ortszeit Luftdruck NN (hPa) Tendenz (hPa in 3 Std.)
Do, 20.09. 14:00 1018 - 1,6
Do, 20.09. 8:00 1023 + 0,4
Do, 20.09. 2:00 1022 - 0,4
Mi, 19.09. 20:00 1021 + 0,4
Mi, 19.09. 14:00 1021 - 0,5
Mi, 19.09. 8:00 1022 + 1,0
Mi, 19.09. 2:00 1021 - 0,3
Di, 18.09. 20:00 1017 + 0,5
Ortszeit Luftdruck NN (hPa) Tendenz (hPa in 3 Std.)
Do, 20.09. 19:00 1017 - 1,1
Do, 20.09. 18:40 1017 keine Meldung
Do, 20.09. 18:30 1017 - 1,2
Do, 20.09. 18:20 1017 keine Meldung
Do, 20.09. 18:10 1017 keine Meldung
Do, 20.09. 18:00 1017 - 1,1
Do, 20.09. 17:50 1017 keine Meldung
Do, 20.09. 17:30 1017 - 1,3
Do, 20.09. 17:00 1017 - 1,3
Do, 20.09. 16:30 1017 - 1,6
Do, 20.09. 16:00 1017 - 1,7
Do, 20.09. 15:30 1018 - 1,7
Ortszeit Schneehöhe (cm)
Do, 20.09. 14:00 -
Do, 20.09. 8:00 -
Do, 20.09. 2:00 -
Mi, 19.09. 20:00 -
Mi, 19.09. 14:00 -
Mi, 19.09. 8:00 -
Mi, 19.09. 2:00 -
Di, 18.09. 20:00 -
Ortszeit Schneehöhe (cm)
Do, 20.09. 19:00 -
Do, 20.09. 18:40 -
Do, 20.09. 18:30 -
Do, 20.09. 18:20 -
Do, 20.09. 18:10 -
Do, 20.09. 18:00 -
Do, 20.09. 17:50 -
Do, 20.09. 17:30 -
Do, 20.09. 17:00 -
Do, 20.09. 16:30 -
Do, 20.09. 16:00 -
Do, 20.09. 15:30 -
Link zu dieser Seite / Seite empfehlen

Das Wetter in ...